AZ49 weather

Aileron Orchards Airport
Dolan Springs, Arizona, United States

Public forecast

Using degrees Fahrenheit for public forecast. Weather courtesy of forecast.io.

Closest aviation weather report (METAR) to Aileron Orchards Airport

Closest report is Kingman Airport, 33.2 nm (61.4 km) SSE. Retrieved 2020/02/26 03:51 UTC (31 minutes ago):

KIGM 260351Z AUTO 09008KT 10SM CLR 04/M08 A3040 RMK AO2 SLP273 T00441078

Closest aviation forecast (TAF) to Aileron Orchards Airport

Closest forecast is Laughlin Bullhead International Airport, 43.3 nm (80.2 km) SSW. Retrieved 2020-02-26 00:30 UTC (4 hours ago):

TAF KIFP 252328Z 2600/2624 36025G35KT P6SM SKC FM260300 01013KT P6SM SKC FM261600 36015G23KT P6SM SKC